Time;durP1;ratioP1;P1;durP2;ratioP2;P2;SDS_P1;SDS_P2;PMS_P1;PMS_P2;Temp;Humidity;BMP_temperature;BMP_pressure;BME280_temperature;BME280_humidity;BME280_pressure;Samples;Min_cycle;Max_cycle;Signal;HPM_P1;HPM_P2
2024/02/19 00:02:05;;;;;;;23.10;10.80;;;1.30;99.90;;;;;;5051752;28;20461;-78
2024/02/19 00:04:53;;;;;;;19.97;10.00;;;1.10;99.90;;;;;;5052746;28;20189;-77
2024/02/19 00:07:41;;;;;;;22.10;10.67;;;1.10;99.90;;;;;;5038674;28;20247;-77
2024/02/19 00:10:28;;;;;;;22.30;10.60;;;1.10;99.90;;;;;;5052575;28;20225;-78
2024/02/19 00:13:16;;;;;;;20.77;10.73;;;1.20;99.90;;;;;;5052147;28;20664;-78
2024/02/19 00:16:03;;;;;;;23.10;11.10;;;1.10;99.90;;;;;;5051947;28;20190;-77
2024/02/19 00:18:51;;;;;;;22.07;10.50;;;1.20;99.90;;;;;;5044692;28;20234;-77
2024/02/19 00:21:39;;;;;;;24.13;11.03;;;1.20;99.90;;;;;;5032298;28;20253;-77
2024/02/19 00:24:27;;;;;;;21.17;11.37;;;1.10;99.90;;;;;;5031551;28;20663;-78
2024/02/19 00:27:14;;;;;;;21.83;10.73;;;1.10;99.90;;;;;;5032417;28;20341;-77
2024/02/19 00:30:02;;;;;;;22.20;10.67;;;1.20;99.90;;;;;;5032378;28;20229;-78
2024/02/19 00:32:50;;;;;;;23.30;10.37;;;1.20;99.90;;;;;;5032964;28;20199;-78
2024/02/19 00:35:37;;;;;;;23.30;11.10;;;1.30;99.90;;;;;;5031827;28;20330;-77
2024/02/19 00:38:25;;;;;;;19.93;10.17;;;1.30;99.90;;;;;;5032211;28;20199;-77
2024/02/19 00:41:12;;;;;;;23.07;10.57;;;1.10;99.90;;;;;;5017698;28;20471;-77
2024/02/19 00:44:00;;;;;;;22.17;10.63;;;1.20;99.90;;;;;;5032878;28;20241;-78
2024/02/19 00:46:47;;;;;;;20.17;10.10;;;1.20;99.90;;;;;;5030912;28;20198;-77
2024/02/19 00:49:34;;;;;;;19.20;9.60;;;1.10;99.90;;;;;;5032121;28;20724;-77
2024/02/19 00:52:22;;;;;;;19.80;9.37;;;1.10;99.90;;;;;;5030817;28;20648;-77
2024/02/19 00:55:10;;;;;;;18.63;9.43;;;1.10;99.90;;;;;;5031499;28;20226;-78
2024/02/19 00:57:57;;;;;;;20.03;9.67;;;1.10;99.90;;;;;;5031873;28;20591;-78
2024/02/19 01:00:45;;;;;;;19.33;9.63;;;1.10;99.90;;;;;;5030683;28;20281;-77
2024/02/19 01:03:32;;;;;;;19.60;9.73;;;1.10;99.90;;;;;;5031951;28;20649;-78
2024/02/19 01:06:20;;;;;;;19.43;9.70;;;1.10;99.90;;;;;;5032475;28;20639;-78
2024/02/19 01:09:09;;;;;;;20.07;9.40;;;1.10;99.90;;;;;;5031903;28;20206;-78
2024/02/19 01:11:57;;;;;;;19.57;9.50;;;1.10;99.90;;;;;;5017243;28;20349;-77
2024/02/19 01:14:44;;;;;;;17.43;8.80;;;1.00;99.90;;;;;;5031827;28;20210;-78
2024/02/19 01:17:32;;;;;;;16.70;8.87;;;1.10;99.90;;;;;;5032929;28;20715;-78
2024/02/19 01:20:20;;;;;;;17.90;9.30;;;1.10;99.90;;;;;;5032222;28;20226;-77
2024/02/19 01:23:07;;;;;;;17.93;9.00;;;1.10;99.90;;;;;;5031658;28;20198;-78
2024/02/19 01:25:58;;;;;;;16.50;8.43;;;1.10;99.90;;;;;;5031659;28;20572;-77
2024/02/19 01:28:46;;;;;;;18.87;9.13;;;1.00;99.90;;;;;;5031722;28;20203;-77
2024/02/19 01:31:34;;;;;;;15.33;8.70;;;1.00;99.90;;;;;;5035679;28;20289;-77
2024/02/19 01:34:21;;;;;;;19.33;9.03;;;0.90;99.90;;;;;;5035728;28;20249;-77
2024/02/19 01:37:09;;;;;;;16.17;8.60;;;1.10;99.90;;;;;;5021207;28;20226;-77
2024/02/19 01:39:56;;;;;;;15.67;8.27;;;1.10;99.90;;;;;;5035001;28;20200;-77
2024/02/19 01:42:44;;;;;;;12.77;7.60;;;1.10;99.90;;;;;;5035462;28;20784;-77
2024/02/19 01:45:32;;;;;;;16.40;8.13;;;1.10;99.90;;;;;;5035572;28;20296;-77
2024/02/19 01:48:19;;;;;;;15.50;7.93;;;1.10;99.90;;;;;;5035439;28;20282;-77
2024/02/19 01:51:08;;;;;;;14.53;7.70;;;1.00;99.90;;;;;;5021300;28;20229;-77
2024/02/19 01:53:55;;;;;;;14.37;7.57;;;1.00;99.90;;;;;;5034233;28;20324;-77
2024/02/19 01:56:43;;;;;;;15.53;7.67;;;1.00;99.90;;;;;;5032956;28;20218;-76
2024/02/19 01:59:31;;;;;;;12.73;7.10;;;1.00;99.90;;;;;;5034866;28;20633;-77
2024/02/19 02:02:20;;;;;;;12.60;6.80;;;1.00;99.90;;;;;;5021642;28;20241;-76
2024/02/19 02:05:10;;;;;;;14.60;7.10;;;0.90;99.90;;;;;;5008324;28;20317;-76
2024/02/19 02:08:02;;;;;;;12.63;6.97;;;0.90;99.90;;;;;;5034587;28;20203;-77
2024/02/19 02:10:50;;;;;;;10.37;6.47;;;0.80;99.90;;;;;;5035526;28;20207;-77
2024/02/19 02:13:38;;;;;;;11.90;6.47;;;0.80;99.90;;;;;;5034392;28;20258;-77
2024/02/19 02:16:26;;;;;;;12.40;6.73;;;0.90;99.90;;;;;;5034355;28;20207;-77
2024/02/19 02:19:16;;;;;;;12.00;6.97;;;0.80;99.90;;;;;;5044104;28;20242;-77
2024/02/19 02:22:04;;;;;;;12.23;6.80;;;0.80;99.90;;;;;;5054397;28;20197;-77
2024/02/19 02:24:51;;;;;;;12.23;6.60;;;0.80;99.90;;;;;;5054216;28;20197;-77
2024/02/19 02:27:39;;;;;;;12.23;6.20;;;0.80;99.90;;;;;;5054258;28;20215;-77
2024/02/19 02:30:27;;;;;;;12.13;6.57;;;0.70;99.90;;;;;;5054710;28;20210;-77
2024/02/19 02:33:15;;;;;;;10.37;6.10;;;0.70;99.90;;;;;;5053504;28;20212;-77
2024/02/19 02:36:03;;;;;;;11.83;6.47;;;0.70;99.90;;;;;;5054545;28;20198;-77
2024/02/19 02:38:50;;;;;;;13.43;6.00;;;0.70;99.90;;;;;;5055031;28;20187;-77
2024/02/19 02:41:38;;;;;;;10.47;6.33;;;0.70;99.90;;;;;;5053719;28;20355;-77
2024/02/19 02:44:25;;;;;;;13.37;6.83;;;0.70;99.90;;;;;;5054402;28;20205;-77
2024/02/19 02:47:13;;;;;;;10.13;6.33;;;0.60;99.90;;;;;;5054066;28;20252;-77
2024/02/19 02:50:00;;;;;;;12.23;6.77;;;0.60;99.90;;;;;;5054786;28;20216;-76
2024/02/19 02:52:49;;;;;;;9.90;5.83;;;0.60;99.90;;;;;;5053593;28;20194;-77
2024/02/19 02:55:37;;;;;;;12.13;6.60;;;0.60;99.90;;;;;;5053211;28;20207;-78
2024/02/19 02:58:24;;;;;;;12.20;6.63;;;0.60;99.90;;;;;;5039915;28;20303;-77
2024/02/19 03:01:17;;;;;;;10.33;6.50;;;0.60;99.90;;;;;;5053138;28;20190;-77
2024/02/19 03:04:04;;;;;;;13.67;6.10;;;0.60;99.90;;;;;;5054543;28;20205;-77
2024/02/19 03:06:52;;;;;;;12.13;6.33;;;0.70;99.90;;;;;;5052585;28;20243;-77
2024/02/19 03:09:39;;;;;;;11.53;6.50;;;0.60;99.90;;;;;;5054404;28;20284;-77
2024/02/19 03:12:27;;;;;;;11.73;6.80;;;0.80;99.90;;;;;;5053096;28;20214;-78
2024/02/19 03:15:14;;;;;;;11.70;6.30;;;0.80;99.90;;;;;;5053771;28;20197;-77
2024/02/19 03:18:03;;;;;;;12.17;6.87;;;0.80;99.90;;;;;;5052434;28;20588;-77
2024/02/19 03:20:50;;;;;;;11.90;6.90;;;0.70;99.90;;;;;;5019706;28;20203;-78
2024/02/19 03:23:39;;;;;;;11.20;6.87;;;0.70;99.90;;;;;;5034928;28;20202;-77
2024/02/19 03:26:27;;;;;;;12.93;7.00;;;0.70;99.90;;;;;;5032493;28;20222;-77
2024/02/19 03:29:17;;;;;;;13.97;7.43;;;0.70;99.90;;;;;;5019943;28;20208;-77
2024/02/19 03:32:05;;;;;;;10.63;6.43;;;0.70;99.90;;;;;;5033174;28;20292;-77
2024/02/19 03:34:52;;;;;;;12.53;6.87;;;0.80;99.90;;;;;;5034084;28;20214;-77
2024/02/19 03:37:40;;;;;;;13.03;6.80;;;0.80;99.90;;;;;;5032996;28;20200;-77
2024/02/19 03:40:27;;;;;;;13.53;6.77;;;0.80;99.90;;;;;;5033638;28;20202;-78
2024/02/19 03:43:15;;;;;;;12.50;7.17;;;0.80;99.90;;;;;;5032762;28;20212;-77
2024/02/19 03:46:04;;;;;;;12.90;7.37;;;0.80;99.90;;;;;;5018679;28;20195;-77
2024/02/19 03:48:51;;;;;;;13.73;6.93;;;0.80;99.90;;;;;;5031029;28;20191;-77
2024/02/19 03:51:39;;;;;;;14.77;7.20;;;0.80;99.90;;;;;;5032787;28;20218;-78
2024/02/19 03:54:26;;;;;;;13.00;7.50;;;0.70;99.90;;;;;;5032659;28;20226;-77
2024/02/19 03:57:14;;;;;;;12.33;6.87;;;0.70;99.90;;;;;;5036815;28;20257;-77
2024/02/19 04:00:05;;;;;;;12.43;7.03;;;0.70;99.90;;;;;;5035760;28;20200;-77
2024/02/19 04:02:52;;;;;;;12.07;6.83;;;0.70;99.90;;;;;;5036427;28;20210;-76
2024/02/19 04:05:40;;;;;;;10.97;6.50;;;0.80;99.90;;;;;;5037713;28;20611;-77
2024/02/19 04:08:27;;;;;;;13.33;6.90;;;0.70;99.90;;;;;;5018579;28;20343;-77
2024/02/19 04:11:18;;;;;;;14.27;6.73;;;0.60;99.90;;;;;;5031761;28;20307;-77
2024/02/19 04:14:06;;;;;;;10.30;6.60;;;0.60;99.90;;;;;;5032776;28;20202;-77
2024/02/19 04:16:53;;;;;;;11.23;6.57;;;0.60;99.90;;;;;;5032103;28;20202;-77
2024/02/19 04:19:41;;;;;;;11.97;6.70;;;0.70;99.90;;;;;;5031458;28;20256;-76
2024/02/19 04:22:29;;;;;;;11.10;6.87;;;0.60;99.90;;;;;;5051545;28;20679;-77
2024/02/19 04:25:16;;;;;;;13.00;6.80;;;0.60;99.90;;;;;;5051837;28;20647;-78
2024/02/19 04:28:04;;;;;;;11.50;6.50;;;0.60;99.90;;;;;;5051866;28;20221;-77
2024/02/19 04:30:51;;;;;;;10.27;6.47;;;0.50;99.90;;;;;;5051249;28;20248;-77
2024/02/19 04:33:43;;;;;;;11.77;6.67;;;0.50;99.90;;;;;;5050944;28;20197;-77
2024/02/19 04:36:31;;;;;;;11.60;6.47;;;0.60;99.90;;;;;;5052234;28;20689;-77
2024/02/19 04:39:18;;;;;;;9.77;6.33;;;0.50;99.90;;;;;;5038048;28;20642;-77
2024/02/19 04:42:06;;;;;;;10.80;6.53;;;0.60;99.90;;;;;;5051696;28;20224;-77
2024/02/19 04:44:53;;;;;;;10.93;6.33;;;0.50;99.90;;;;;;5052689;28;20318;-77
2024/02/19 04:47:41;;;;;;;9.90;6.30;;;0.50;99.90;;;;;;5051034;28;20567;-77
2024/02/19 04:50:29;;;;;;;10.33;6.50;;;0.50;99.90;;;;;;5052528;28;20219;-77
2024/02/19 04:53:18;;;;;;;11.07;6.53;;;0.50;99.90;;;;;;5051028;28;20242;-78
2024/02/19 04:56:06;;;;;;;9.27;5.87;;;0.60;99.90;;;;;;5051932;28;20198;-77
2024/02/19 04:58:55;;;;;;;10.23;6.23;;;0.50;99.90;;;;;;5038414;28;20226;-77
2024/02/19 05:01:42;;;;;;;9.80;6.27;;;0.60;99.90;;;;;;5051819;28;20245;-77
2024/02/19 05:04:30;;;;;;;11.50;6.30;;;0.50;99.90;;;;;;5051190;28;20194;-77
2024/02/19 05:07:17;;;;;;;9.57;6.00;;;0.50;99.90;;;;;;5038233;28;20199;-77
2024/02/19 05:10:07;;;;;;;8.83;6.17;;;0.50;99.90;;;;;;5037716;28;20680;-77
2024/02/19 05:12:54;;;;;;;9.90;5.97;;;0.50;99.90;;;;;;5037560;28;20215;-76
2024/02/19 05:15:42;;;;;;;9.93;5.97;;;0.50;99.90;;;;;;5037647;28;20563;-77
2024/02/19 05:18:29;;;;;;;9.87;6.40;;;0.50;99.90;;;;;;5047182;28;20797;-77
2024/02/19 05:21:18;;;;;;;11.03;6.00;;;0.50;99.90;;;;;;5032042;28;20206;-76
2024/02/19 05:24:06;;;;;;;11.43;6.27;;;0.50;99.90;;;;;;5017486;28;20232;-76
2024/02/19 05:26:53;;;;;;;9.17;5.80;;;0.50;99.90;;;;;;5033037;28;20222;-76
2024/02/19 05:29:40;;;;;;;9.90;5.93;;;0.50;99.90;;;;;;5031758;28;20188;-77
2024/02/19 05:32:28;;;;;;;13.77;5.97;;;0.50;99.90;;;;;;5031846;28;20567;-78
2024/02/19 05:35:15;;;;;;;10.93;6.40;;;0.50;99.90;;;;;;5031400;28;20206;-78
2024/02/19 05:38:03;;;;;;;11.30;5.83;;;0.50;99.90;;;;;;5031260;28;20195;-77
2024/02/19 05:40:50;;;;;;;9.90;6.03;;;0.50;99.90;;;;;;5030581;28;20243;-78
2024/02/19 05:43:38;;;;;;;11.67;6.00;;;0.50;99.90;;;;;;5032673;28;20214;-76
2024/02/19 05:46:25;;;;;;;9.90;6.00;;;0.50;99.90;;;;;;5031206;28;20634;-77
2024/02/19 05:49:13;;;;;;;10.37;5.50;;;0.50;99.90;;;;;;5031187;28;20207;-77
2024/02/19 05:52:00;;;;;;;10.37;5.87;;;0.50;99.90;;;;;;5031939;28;20264;-77
2024/02/19 05:54:48;;;;;;;10.07;5.93;;;0.50;99.90;;;;;;5030926;28;20283;-77
2024/02/19 05:57:36;;;;;;;9.87;5.97;;;0.40;99.90;;;;;;5031994;28;20215;-79
2024/02/19 06:00:23;;;;;;;11.20;5.83;;;0.40;99.90;;;;;;5030300;28;20271;-76
2024/02/19 06:03:11;;;;;;;9.43;5.57;;;0.50;99.90;;;;;;5030942;28;20271;-77
2024/02/19 06:05:58;;;;;;;9.80;5.70;;;0.50;99.90;;;;;;5030647;28;20272;-76
2024/02/19 06:08:46;;;;;;;9.77;5.90;;;0.50;99.90;;;;;;5030872;28;20203;-76
2024/02/19 06:11:33;;;;;;;10.53;6.00;;;0.50;99.90;;;;;;5030720;28;20807;-80
2024/02/19 06:14:21;;;;;;;11.33;6.27;;;0.50;99.90;;;;;;5029733;28;20199;-79
2024/02/19 06:17:09;;;;;;;9.67;6.23;;;0.50;99.90;;;;;;5034475;28;20202;-79
2024/02/19 06:19:56;;;;;;;10.10;6.47;;;0.50;99.90;;;;;;5034022;28;20641;-80
2024/02/19 06:22:44;;;;;;;10.27;6.13;;;0.40;99.90;;;;;;5034441;28;20627;-79
2024/02/19 06:25:33;;;;;;;11.77;6.63;;;0.60;99.90;;;;;;5034149;28;20572;-79
2024/02/19 06:28:20;;;;;;;9.60;5.93;;;0.50;99.90;;;;;;5035884;28;20226;-79
2024/02/19 06:31:08;;;;;;;9.37;5.97;;;0.50;99.90;;;;;;5019972;28;20222;-79
2024/02/19 06:33:55;;;;;;;10.07;5.83;;;0.50;99.90;;;;;;5034658;28;20205;-79
2024/02/19 06:36:44;;;;;;;9.87;6.07;;;0.60;99.90;;;;;;5034536;28;20289;-80
2024/02/19 06:39:31;;;;;;;11.30;6.50;;;0.60;99.90;;;;;;5034417;28;20203;-82
2024/02/19 06:42:20;;;;;;;9.70;6.10;;;0.60;99.90;;;;;;5021042;28;20218;-83
2024/02/19 06:45:07;;;;;;;12.13;6.63;;;0.60;99.90;;;;;;5033820;28;20289;-78
2024/02/19 06:47:55;;;;;;;12.77;6.43;;;0.60;99.90;;;;;;5034373;28;20198;-81
2024/02/19 06:50:43;;;;;;;13.63;6.60;;;0.60;99.90;;;;;;5033299;28;20261;-79
2024/02/19 06:53:30;;;;;;;14.53;6.30;;;0.70;99.90;;;;;;5034269;28;20339;-79
2024/02/19 06:56:17;;;;;;;9.70;6.40;;;0.70;99.90;;;;;;5033866;28;20307;-78
2024/02/19 06:59:05;;;;;;;12.07;6.97;;;0.70;99.90;;;;;;5032309;28;20655;-78
2024/02/19 07:01:53;;;;;;;10.70;6.70;;;0.80;99.90;;;;;;5033833;28;20580;-79
2024/02/19 07:04:40;;;;;;;13.43;6.63;;;0.80;99.90;;;;;;5033710;28;20207;-77
2024/02/19 07:07:28;;;;;;;11.53;6.53;;;0.90;99.90;;;;;;5020045;28;20213;-78
2024/02/19 07:10:17;;;;;;;13.30;6.90;;;0.90;99.90;;;;;;5032701;28;20271;-79
2024/02/19 07:13:05;;;;;;;9.93;6.20;;;1.00;99.90;;;;;;5033926;28;20223;-79
2024/02/19 07:15:52;;;;;;;10.70;6.27;;;0.90;99.90;;;;;;5033868;28;20210;-79
2024/02/19 07:18:39;;;;;;;11.07;6.33;;;1.00;99.90;;;;;;5032997;28;20230;-78
2024/02/19 07:21:27;;;;;;;10.30;6.20;;;1.00;99.90;;;;;;5032553;28;20200;-78
2024/02/19 07:24:15;;;;;;;10.30;6.40;;;1.10;99.90;;;;;;5032689;28;20199;-78
2024/02/19 07:27:03;;;;;;;9.60;6.20;;;1.20;99.90;;;;;;5033234;28;20321;-78
2024/02/19 07:29:53;;;;;;;14.43;6.70;;;1.20;99.90;;;;;;5032151;28;20272;-79
2024/02/19 07:32:41;;;;;;;10.63;6.07;;;1.20;99.90;;;;;;5020172;28;20230;-79
2024/02/19 07:35:29;;;;;;;10.97;6.67;;;1.20;99.90;;;;;;5032995;28;20199;-79
2024/02/19 07:38:17;;;;;;;10.63;6.37;;;1.30;99.90;;;;;;5033481;28;20663;-78
2024/02/19 07:41:04;;;;;;;11.37;6.60;;;1.40;99.90;;;;;;5033396;28;20289;-79
2024/02/19 07:43:52;;;;;;;10.90;7.13;;;1.40;99.90;;;;;;5032885;28;20191;-79
2024/02/19 07:46:39;;;;;;;10.33;6.50;;;1.40;99.90;;;;;;5031098;28;20188;-80
2024/02/19 07:49:26;;;;;;;11.47;6.47;;;1.50;99.90;;;;;;5033981;28;20384;-80
2024/02/19 07:52:14;;;;;;;10.77;6.67;;;1.60;99.90;;;;;;5032053;28;20215;-80
2024/02/19 07:55:01;;;;;;;11.90;6.83;;;1.50;99.90;;;;;;5033218;28;20647;-79
2024/02/19 07:57:49;;;;;;;9.87;6.40;;;1.50;99.90;;;;;;5032888;28;20219;-78
2024/02/19 08:00:37;;;;;;;10.40;6.43;;;1.50;99.90;;;;;;5032447;28;20202;-79
2024/02/19 08:03:25;;;;;;;11.95;8.20;;;1.50;99.90;;;;;;5031371;28;20427;-81
2024/02/19 08:06:13;;;;;;;11.03;6.97;;;1.60;99.90;;;;;;5032979;28;20209;-77
2024/02/19 08:09:04;;;;;;;12.40;7.10;;;1.50;99.90;;;;;;5032465;28;20202;-77
2024/02/19 08:11:52;;;;;;;10.43;6.50;;;1.60;99.90;;;;;;5032219;28;20227;-79
2024/02/19 08:14:40;;;;;;;10.60;6.50;;;1.60;99.90;;;;;;5033182;28;20191;-78
2024/02/19 08:17:27;;;;;;;12.53;6.70;;;1.60;99.90;;;;;;5033366;28;20278;-73
2024/02/19 08:20:14;;;;;;;10.10;6.30;;;1.70;99.90;;;;;;5032675;28;20237;-75
2024/02/19 08:23:02;;;;;;;10.73;6.70;;;1.70;99.90;;;;;;5031989;28;20286;-77
2024/02/19 08:25:50;;;;;;;10.30;6.20;;;1.80;99.90;;;;;;5019458;28;20214;-75
2024/02/19 08:28:40;;;;;;;10.67;6.17;;;1.80;99.90;;;;;;5033472;28;20211;-75
2024/02/19 08:31:27;;;;;;;12.27;6.37;;;1.80;99.90;;;;;;5031084;28;20223;-76
2024/02/19 08:34:14;;;;;;;12.57;6.87;;;2.00;99.90;;;;;;5031409;28;20918;-76
2024/02/19 08:37:05;;;;;;;10.87;6.13;;;2.00;99.90;;;;;;5032340;28;20656;-79
2024/02/19 08:39:54;;;;;;;10.30;6.13;;;2.10;99.90;;;;;;5031389;28;20282;-80
2024/02/19 08:42:41;;;;;;;10.83;6.30;;;2.20;99.90;;;;;;5030502;28;20676;-80
2024/02/19 08:45:28;;;;;;;11.33;6.40;;;2.30;99.90;;;;;;5032497;28;20724;-78
2024/02/19 08:48:23;;;;;;;11.30;6.40;;;2.30;99.90;;;;;;5032211;28;20721;-77
2024/02/19 08:51:10;;;;;;;10.17;6.37;;;2.20;99.90;;;;;;5031867;28;20222;-78
2024/02/19 08:53:58;;;;;;;10.97;6.80;;;2.30;99.90;;;;;;5032145;28;20208;-76
2024/02/19 08:56:47;;;;;;;10.23;6.23;;;2.40;99.90;;;;;;5031717;28;20211;-79
2024/02/19 08:59:34;;;;;;;11.17;6.23;;;2.60;99.90;;;;;;5030404;28;20563;-77
2024/02/19 09:02:21;;;;;;;11.27;6.57;;;2.70;99.90;;;;;;5031212;28;20198;-76
2024/02/19 09:05:12;;;;;;;10.97;6.90;;;2.80;99.90;;;;;;5032058;28;20211;-75
2024/02/19 09:08:00;;;;;;;12.37;7.00;;;2.80;99.90;;;;;;5030960;28;20662;-75
2024/02/19 09:10:48;;;;;;;10.70;6.93;;;2.70;99.90;;;;;;5032460;28;20286;-76
2024/02/19 09:13:36;;;;;;;13.90;7.00;;;2.70;99.90;;;;;;5032318;28;20207;-75
2024/02/19 09:16:23;;;;;;;12.17;6.80;;;2.70;99.90;;;;;;5018387;28;20219;-75
2024/02/19 09:19:15;;;;;;;12.97;6.57;;;2.70;99.90;;;;;;5031291;28;20234;-78
2024/02/19 09:22:03;;;;;;;10.27;6.43;;;2.70;99.90;;;;;;5031973;28;20195;-84
2024/02/19 09:24:51;;;;;;;12.37;7.10;;;2.70;99.90;;;;;;5016716;28;20233;-76
2024/02/19 09:27:39;;;;;;;15.53;7.70;;;2.80;99.90;;;;;;5030669;28;20290;-77
2024/02/19 09:30:26;;;;;;;11.37;6.83;;;2.70;99.90;;;;;;5017323;28;20195;-83
2024/02/19 09:33:14;;;;;;;11.20;6.70;;;2.80;99.90;;;;;;5031233;28;20223;-81
2024/02/19 09:36:03;;;;;;;12.80;6.83;;;2.90;99.90;;;;;;5030996;28;20189;-77
2024/02/19 09:38:51;;;;;;;12.37;6.93;;;3.00;99.90;;;;;;5030427;28;20195;-77
2024/02/19 09:41:39;;;;;;;11.17;6.70;;;2.90;99.90;;;;;;5030788;28;20207;-78
2024/02/19 09:44:27;;;;;;;10.40;6.80;;;3.00;99.90;;;;;;5030971;28;20795;-78
2024/02/19 09:47:18;;;;;;;11.43;7.07;;;3.00;99.90;;;;;;5031493;28;20658;-78
2024/02/19 09:50:09;;;;;;;10.97;6.93;;;3.00;99.90;;;;;;5031136;28;20192;-78
2024/02/19 09:53:15;;;;;;;11.67;6.97;;;2.90;99.90;;;;;;5035388;28;20227;-78
2024/02/19 09:56:03;;;;;;;13.37;8.07;;;2.80;99.90;;;;;;5034388;28;20207;-78
2024/02/19 09:58:51;;;;;;;13.23;7.70;;;2.60;99.90;;;;;;5022206;28;20302;-78
2024/02/19 10:01:39;;;;;;;13.00;7.60;;;2.70;99.90;;;;;;5021074;28;20744;-80
2024/02/19 10:04:27;;;;;;;13.10;8.57;;;2.70;99.90;;;;;;5020903;28;20188;-78
2024/02/19 10:07:18;;;;;;;14.03;8.00;;;2.70;99.90;;;;;;5035234;28;20199;-79
2024/02/19 10:10:10;;;;;;;13.90;8.40;;;2.60;99.90;;;;;;5035468;28;20200;-80
2024/02/19 10:12:57;;;;;;;16.07;8.20;;;2.60;99.90;;;;;;5034541;28;20223;-80
2024/02/19 10:15:45;;;;;;;15.10;8.87;;;2.60;99.90;;;;;;5035900;28;20381;-79
2024/02/19 10:18:32;;;;;;;16.10;8.83;;;2.60;99.90;;;;;;5033662;28;20235;-79
2024/02/19 10:21:20;;;;;;;16.87;9.43;;;2.70;99.90;;;;;;5035180;28;20673;-76
2024/02/19 10:24:07;;;;;;;17.50;9.13;;;2.80;99.90;;;;;;5034272;28;20202;-76
2024/02/19 10:26:54;;;;;;;14.90;9.10;;;2.80;99.90;;;;;;5033728;28;20216;-76
2024/02/19 10:29:42;;;;;;;14.47;8.97;;;2.80;99.90;;;;;;5036000;28;20276;-77
2024/02/19 10:32:30;;;;;;;16.13;9.50;;;2.80;99.90;;;;;;5021103;28;20215;-75
2024/02/19 10:35:18;;;;;;;15.03;8.57;;;2.70;99.90;;;;;;5033173;28;20203;-75
2024/02/19 10:38:07;;;;;;;16.33;9.17;;;2.60;99.90;;;;;;5034539;28;20717;-80
2024/02/19 10:40:56;;;;;;;18.07;9.30;;;2.50;99.90;;;;;;5034554;28;20670;-78
2024/02/19 10:43:46;;;;;;;16.97;9.67;;;2.50;99.90;;;;;;5034520;28;20196;-77
2024/02/19 10:46:34;;;;;;;17.37;9.80;;;2.50;99.90;;;;;;5034819;28;20206;-77
2024/02/19 10:49:22;;;;;;;15.87;9.80;;;2.50;99.90;;;;;;5033788;28;20195;-77
2024/02/19 10:52:10;;;;;;;17.67;10.20;;;2.50;99.90;;;;;;5034314;28;20308;-79
2024/02/19 10:54:59;;;;;;;17.40;9.87;;;2.40;99.90;;;;;;5018785;28;20369;-78
2024/02/19 10:57:59;;;;;;;17.20;9.93;;;2.30;99.90;;;;;;5034468;28;20222;-78
2024/02/19 11:00:48;;;;;;;16.20;9.97;;;2.30;99.90;;;;;;5034480;28;20210;-78
2024/02/19 11:03:45;;;;;;;18.43;10.27;;;2.20;99.90;;;;;;5033681;28;20200;-76
2024/02/19 11:06:36;;;;;;;20.63;10.87;;;2.20;99.90;;;;;;5033538;28;20199;-78
2024/02/19 11:09:58;;;;;;;18.17;10.10;;;2.20;99.90;;;;;;5034567;28;20632;-76
2024/02/19 11:12:48;;;;;;;19.03;9.87;;;2.20;99.90;;;;;;5033856;28;20305;-77
2024/02/19 11:15:42;;;;;;;18.43;10.47;;;2.20;99.90;;;;;;5034694;28;20256;-78
2024/02/19 11:18:31;;;;;;;19.83;10.43;;;2.20;99.90;;;;;;5034091;28;20231;-80
2024/02/19 11:21:19;;;;;;;21.37;11.70;;;2.20;99.90;;;;;;5023051;28;20277;-80
2024/02/19 11:24:08;;;;;;;18.83;10.70;;;2.20;99.90;;;;;;5033244;28;20195;-80
2024/02/19 11:26:55;;;;;;;19.73;10.33;;;2.20;99.90;;;;;;5019573;28;20261;-76
2024/02/19 11:29:43;;;;;;;20.40;10.90;;;2.30;99.90;;;;;;5034475;28;20337;-74
2024/02/19 11:32:36;;;;;;;22.13;11.07;;;2.30;99.90;;;;;;5032891;28;20216;-76
2024/02/19 11:35:24;;;;;;;18.83;10.73;;;2.20;99.90;;;;;;5033106;28;20195;-78
2024/02/19 11:38:12;;;;;;;22.70;11.27;;;2.20;99.90;;;;;;5033091;28;20626;-78
2024/02/19 11:41:01;;;;;;;20.77;11.23;;;2.20;99.90;;;;;;5032766;28;20683;-77
2024/02/19 11:43:49;;;;;;;21.53;10.73;;;2.20;99.90;;;;;;5019303;28;20626;-77
2024/02/19 11:46:36;;;;;;;21.97;11.30;;;2.10;99.90;;;;;;5033237;28;20551;-73
2024/02/19 11:49:25;;;;;;;20.37;11.10;;;2.20;99.90;;;;;;5018565;28;20195;-79
2024/02/19 11:52:14;;;;;;;21.60;12.00;;;2.20;99.90;;;;;;5019167;28;20232;-76
2024/02/19 11:55:02;;;;;;;20.70;11.47;;;2.20;99.90;;;;;;5033463;28;20547;-75
2024/02/19 11:57:50;;;;;;;21.67;11.93;;;2.20;99.90;;;;;;5034149;28;20689;-77
2024/02/19 12:00:38;;;;;;;22.80;12.10;;;2.20;99.90;;;;;;5035330;28;20202;-75
2024/02/19 12:03:29;;;;;;;21.20;12.40;;;2.20;99.90;;;;;;5035010;28;20199;-82
2024/02/19 12:06:16;;;;;;;22.27;12.47;;;2.20;99.90;;;;;;5023335;28;20656;-82
2024/02/19 12:09:07;;;;;;;24.37;12.10;;;2.20;99.90;;;;;;5033900;28;20223;-80
2024/02/19 12:11:56;;;;;;;24.43;12.47;;;2.20;99.90;;;;;;5033086;28;20218;-81
2024/02/19 12:14:44;;;;;;;23.30;12.20;;;2.20;99.90;;;;;;5032938;28;20640;-82
2024/02/19 12:17:31;;;;;;;23.83;12.33;;;2.20;99.90;;;;;;5032406;28;20203;-83
2024/02/19 12:20:20;;;;;;;24.50;13.27;;;2.20;99.90;;;;;;5031773;28;20230;-81
2024/02/19 12:23:08;;;;;;;22.70;13.20;;;2.20;99.90;;;;;;5032755;28;20285;-81
2024/02/19 12:25:56;;;;;;;23.73;13.13;;;2.20;99.90;;;;;;5032539;28;20195;-82
2024/02/19 12:28:44;;;;;;;23.43;13.13;;;2.30;99.90;;;;;;5032407;28;20196;-80
2024/02/19 12:31:31;;;;;;;23.57;13.07;;;2.20;99.90;;;;;;5032472;28;20194;-80
2024/02/19 12:34:18;;;;;;;26.87;13.20;;;2.30;99.90;;;;;;5031031;28;20301;-81
2024/02/19 12:37:06;;;;;;;26.17;13.57;;;2.40;99.90;;;;;;5032421;28;20200;-77
2024/02/19 12:39:54;;;;;;;24.97;13.30;;;2.40;99.90;;;;;;5032546;28;20203;-80
2024/02/19 12:42:42;;;;;;;25.40;13.23;;;2.30;99.90;;;;;;5032188;28;20306;-81
2024/02/19 12:45:30;;;;;;;25.50;12.97;;;2.40;99.90;;;;;;5031905;28;20237;-75
2024/02/19 12:48:17;;;;;;;26.33;13.73;;;2.30;99.90;;;;;;5032194;28;20729;-75
2024/02/19 12:51:06;;;;;;;24.63;13.63;;;2.40;99.90;;;;;;5017600;28;20689;-78
2024/02/19 12:53:53;;;;;;;24.17;13.17;;;2.40;99.90;;;;;;5032686;28;20307;-77
2024/02/19 12:56:40;;;;;;;29.13;13.87;;;2.40;99.90;;;;;;5032634;28;20220;-77
2024/02/19 12:59:28;;;;;;;30.27;14.43;;;2.40;99.90;;;;;;5016621;28;20650;-75
2024/02/19 13:02:16;;;;;;;29.27;15.37;;;2.40;99.90;;;;;;5031525;28;20192;-77
2024/02/19 13:05:04;;;;;;;27.90;13.67;;;2.50;99.90;;;;;;5032069;28;20625;-80
2024/02/19 13:07:52;;;;;;;28.90;14.83;;;2.40;99.90;;;;;;5032040;28;20280;-74
2024/02/19 13:10:41;;;;;;;30.40;15.30;;;2.50;99.90;;;;;;5031855;28;20202;-76
2024/02/19 13:13:33;;;;;;;28.60;14.40;;;2.50;99.90;;;;;;5031764;28;20545;-82
2024/02/19 13:16:20;;;;;;;31.03;15.17;;;2.50;99.90;;;;;;5031691;28;20327;-78
2024/02/19 13:19:08;;;;;;;29.43;15.23;;;2.50;99.90;;;;;;5031568;28;20281;-78
2024/02/19 13:21:56;;;;;;;29.80;15.47;;;2.60;99.90;;;;;;5032394;28;20686;-80
2024/02/19 13:24:43;;;;;;;28.83;14.80;;;2.60;99.90;;;;;;5019205;28;20195;-79
2024/02/19 13:27:31;;;;;;;30.03;14.97;;;2.70;99.90;;;;;;5039558;28;20226;-78
2024/02/19 13:30:18;;;;;;;29.33;15.30;;;2.60;99.90;;;;;;5038567;28;20191;-76
2024/02/19 13:33:07;;;;;;;31.13;14.87;;;2.70;99.90;;;;;;5038964;28;20215;-76
2024/02/19 13:35:54;;;;;;;33.47;15.93;;;2.70;99.90;;;;;;5025855;28;20666;-77
2024/02/19 13:38:43;;;;;;;35.33;16.57;;;2.70;99.90;;;;;;5040919;28;20277;-78
2024/02/19 13:41:31;;;;;;;30.97;15.83;;;2.70;99.90;;;;;;5025260;28;20195;-78
2024/02/19 13:44:18;;;;;;;32.17;15.37;;;2.70;99.90;;;;;;5038889;28;20226;-78
2024/02/19 13:47:07;;;;;;;34.47;16.50;;;2.70;99.90;;;;;;5038712;28;20321;-81
2024/02/19 13:49:54;;;;;;;34.20;16.97;;;2.70;99.90;;;;;;5024326;28;20196;-80
2024/02/19 13:52:42;;;;;;;32.63;16.13;;;2.70;99.90;;;;;;5036862;28;20222;-78
2024/02/19 13:55:30;;;;;;;32.90;16.40;;;2.70;99.90;;;;;;5037976;28;20200;-75
2024/02/19 13:58:17;;;;;;;31.63;16.03;;;2.70;99.90;;;;;;5037288;28;20269;-77
2024/02/19 14:01:05;;;;;;;32.87;16.73;;;2.70;99.90;;;;;;5038578;28;20200;-76
2024/02/19 14:03:52;;;;;;;33.77;17.37;;;2.70;99.90;;;;;;5038214;28;20195;-76
2024/02/19 14:06:40;;;;;;;34.27;17.17;;;2.70;99.90;;;;;;5037515;28;20246;-75
2024/02/19 14:09:27;;;;;;;35.47;17.80;;;2.80;99.90;;;;;;5024452;28;20282;-75
2024/02/19 14:12:15;;;;;;;38.33;18.03;;;2.80;99.90;;;;;;5037824;28;20215;-75
2024/02/19 14:15:03;;;;;;;38.20;19.40;;;2.80;99.90;;;;;;5038395;28;20192;-76
2024/02/19 14:17:53;;;;;;;37.77;18.73;;;2.80;99.90;;;;;;5037778;28;20199;-76
2024/02/19 14:20:40;;;;;;;36.70;17.77;;;2.80;99.90;;;;;;5037498;28;20210;-78
2024/02/19 14:23:28;;;;;;;38.77;19.30;;;2.90;99.90;;;;;;5037978;28;20197;-75
2024/02/19 14:26:15;;;;;;;40.07;19.73;;;2.90;99.90;;;;;;5037706;28;20242;-83
2024/02/19 14:29:05;;;;;;;38.60;18.93;;;3.00;99.90;;;;;;5036459;28;20203;-77
2024/02/19 14:31:53;;;;;;;37.00;19.07;;;3.00;99.90;;;;;;5023653;28;20237;-75
2024/02/19 14:34:40;;;;;;;35.13;18.77;;;3.00;99.90;;;;;;5038344;28;20207;-75